createdAt,value
2023-02-08T00:01:19.623Z,-3.11
2023-02-08T00:03:47.349Z,-3.03
2023-02-08T00:06:15.381Z,-3.02
2023-02-08T00:08:42.871Z,-3.00
2023-02-08T00:11:13.577Z,-3.11
2023-02-08T00:13:42.206Z,-3.11
2023-02-08T00:16:10.366Z,-3.04
2023-02-08T00:18:37.643Z,-2.88
2023-02-08T00:21:13.406Z,-2.86
2023-02-08T00:23:40.935Z,-2.94
2023-02-08T00:26:08.648Z,-2.92
2023-02-08T00:28:36.550Z,-3.10
2023-02-08T00:31:04.151Z,-2.99
2023-02-08T00:33:31.542Z,-2.93
2023-02-08T00:36:01.023Z,-3.01
2023-02-08T00:38:29.181Z,-2.96
2023-02-08T00:40:56.545Z,-2.93
2023-02-08T00:43:24.734Z,-3.11
2023-02-08T00:46:00.194Z,-3.19
2023-02-08T00:48:28.205Z,-2.97
2023-02-08T00:51:09.721Z,-2.91
2023-02-08T00:53:43.460Z,-2.86
2023-02-08T00:56:13.356Z,-2.78
2023-02-08T00:58:41.965Z,-2.90
2023-02-08T01:01:09.901Z,-2.86
2023-02-08T01:03:41.051Z,-2.89
2023-02-08T01:06:15.136Z,-2.84
2023-02-08T01:08:42.963Z,-2.85
2023-02-08T01:11:15.739Z,-3.01
2023-02-08T01:13:43.238Z,-2.95
2023-02-08T01:16:23.617Z,-3.06
2023-02-08T01:18:55.864Z,-2.89
2023-02-08T01:21:27.761Z,-2.79
2023-02-08T01:23:56.979Z,-2.94
2023-02-08T01:26:26.043Z,-2.87
2023-02-08T01:28:55.599Z,-2.80
2023-02-08T01:31:30.291Z,-2.73
2023-02-08T01:34:01.426Z,-2.79
2023-02-08T01:36:30.969Z,-2.76
2023-02-08T01:38:58.847Z,-2.79
2023-02-08T01:41:35.735Z,-2.82
2023-02-08T01:44:25.143Z,-2.80
2023-02-08T01:46:52.346Z,-2.87
2023-02-08T01:49:33.573Z,-2.98
2023-02-08T01:52:16.681Z,-2.99
2023-02-08T01:54:52.986Z,-2.91
2023-02-08T01:57:22.543Z,-2.86
2023-02-08T01:59:59.818Z,-2.97
2023-02-08T02:02:27.688Z,-2.97
2023-02-08T02:04:55.746Z,-2.96
2023-02-08T02:07:28.879Z,-3.03
2023-02-08T02:10:15.946Z,-3.05
2023-02-08T02:12:44.510Z,-2.89
2023-02-08T02:15:11.798Z,-2.88
2023-02-08T02:17:40.208Z,-2.85
2023-02-08T02:20:43.715Z,-3.01
2023-02-08T02:23:21.465Z,-2.96
2023-02-08T02:26:35.566Z,-2.98
2023-02-08T02:29:41.982Z,-3.09
2023-02-08T02:32:29.455Z,-3.15
2023-02-08T02:35:14.681Z,-3.23
2023-02-08T02:38:13.981Z,-3.20
2023-02-08T02:41:43.489Z,-3.21
2023-02-08T02:44:39.754Z,-3.02
2023-02-08T02:47:59.576Z,-3.14
2023-02-08T02:50:32.483Z,-3.10
2023-02-08T02:53:42.016Z,-3.08
2023-02-08T02:56:24.824Z,-3.13
2023-02-08T02:58:56.283Z,-3.20
2023-02-08T03:01:30.103Z,-3.25
2023-02-08T03:03:58.003Z,-3.19
2023-02-08T03:07:10.512Z,-3.04
2023-02-08T03:09:58.184Z,-3.06
2023-02-08T03:12:32.634Z,-3.10
2023-02-08T03:15:44.058Z,-3.05
2023-02-08T03:18:30.600Z,-3.01
2023-02-08T03:21:27.150Z,-2.94
2023-02-08T03:24:09.476Z,-2.98
2023-02-08T03:26:54.197Z,-3.07
2023-02-08T03:30:06.722Z,-3.02
2023-02-08T03:32:50.330Z,-3.10
2023-02-08T03:35:29.119Z,-3.24
2023-02-08T03:38:04.957Z,-3.05
2023-02-08T03:40:44.538Z,-3.04
2023-02-08T03:43:39.186Z,-2.98
2023-02-08T03:46:17.400Z,-2.96
2023-02-08T03:48:52.483Z,-2.90
2023-02-08T03:51:22.593Z,-3.05
2023-02-08T03:53:51.492Z,-3.02
2023-02-08T03:56:38.937Z,-2.98
2023-02-08T03:59:16.198Z,-3.22
2023-02-08T04:01:58.277Z,-3.13
2023-02-08T04:04:37.592Z,-3.04
2023-02-08T04:07:05.996Z,-2.97
2023-02-08T04:09:33.232Z,-2.91
2023-02-08T04:12:00.565Z,-2.89
2023-02-08T04:14:27.842Z,-2.88
2023-02-08T04:16:55.110Z,-2.93
2023-02-08T04:19:22.389Z,-3.00
2023-02-08T04:21:49.574Z,-2.92
2023-02-08T04:24:16.782Z,-2.94
2023-02-08T04:26:43.990Z,-2.96
2023-02-08T04:29:11.300Z,-2.92
2023-02-08T04:31:38.630Z,-2.79
2023-02-08T04:34:06.018Z,-2.80
2023-02-08T04:36:35.748Z,-2.84
2023-02-08T04:39:03.412Z,-2.94
2023-02-08T04:41:30.835Z,-2.83
2023-02-08T04:43:58.102Z,-2.97
2023-02-08T04:46:25.371Z,-2.86
2023-02-08T04:48:57.339Z,-2.89
2023-02-08T04:51:25.829Z,-2.89
2023-02-08T04:53:53.082Z,-2.87
2023-02-08T04:56:20.304Z,-2.98
2023-02-08T04:58:48.541Z,-2.91
2023-02-08T05:01:16.608Z,-2.83
2023-02-08T05:03:44.061Z,-3.01
2023-02-08T05:06:11.313Z,-2.94
2023-02-08T05:08:38.612Z,-2.88
2023-02-08T05:11:06.162Z,-2.88
2023-02-08T05:13:33.482Z,-2.87
2023-02-08T05:16:00.836Z,-2.91
2023-02-08T05:18:28.300Z,-2.98
2023-02-08T05:21:00.585Z,-2.88
2023-02-08T05:23:28.620Z,-2.86
2023-02-08T05:25:55.959Z,-2.94
2023-02-08T05:28:23.280Z,-2.88
2023-02-08T05:30:50.682Z,-2.87
2023-02-08T05:33:19.006Z,-2.77
2023-02-08T05:35:46.438Z,-2.88
2023-02-08T05:38:13.644Z,-2.94
2023-02-08T05:40:41.363Z,-2.82
2023-02-08T05:43:08.818Z,-2.82
2023-02-08T05:45:35.975Z,-2.88
2023-02-08T05:48:03.324Z,-2.92
2023-02-08T05:50:31.703Z,-2.88
2023-02-08T05:52:59.478Z,-2.91
2023-02-08T05:55:28.369Z,-2.79
2023-02-08T05:57:55.575Z,-2.81
2023-02-08T06:00:22.935Z,-2.78
2023-02-08T06:02:50.247Z,-2.79
2023-02-08T06:05:17.837Z,-2.77
2023-02-08T06:07:45.128Z,-2.73
2023-02-08T06:10:12.530Z,-2.81
2023-02-08T06:12:39.717Z,-2.71
2023-02-08T06:15:07.386Z,-2.67
2023-02-08T06:17:34.644Z,-2.70
2023-02-08T06:20:01.780Z,-2.74
2023-02-08T06:22:29.093Z,-2.73
2023-02-08T06:24:56.326Z,-2.77
2023-02-08T06:27:23.552Z,-2.71
2023-02-08T06:29:53.541Z,-2.97
2023-02-08T06:32:21.238Z,-3.05
2023-02-08T06:34:50.749Z,-3.01
2023-02-08T06:37:21.898Z,-3.02
2023-02-08T06:39:49.103Z,-3.02
2023-02-08T06:42:16.399Z,-2.96
2023-02-08T06:44:54.208Z,-3.02
2023-02-08T06:47:24.043Z,-3.23
2023-02-08T06:49:52.478Z,-3.14
2023-02-08T06:52:21.075Z,-3.02
2023-02-08T06:54:48.380Z,-3.15
2023-02-08T06:57:15.691Z,-2.99
2023-02-08T06:59:43.376Z,-2.77
2023-02-08T07:02:17.574Z,-2.79
2023-02-08T07:04:45.663Z,-2.78
2023-02-08T07:07:14.786Z,-2.84
2023-02-08T07:09:42.553Z,-2.86
2023-02-08T07:12:10.705Z,-2.81
2023-02-08T07:14:42.031Z,-2.63
2023-02-08T07:17:10.581Z,-2.44
2023-02-08T07:19:37.952Z,-2.43
2023-02-08T07:22:08.432Z,-2.32
2023-02-08T07:24:41.358Z,-2.09
2023-02-08T07:27:11.818Z,-1.53
2023-02-08T07:29:39.760Z,-1.23
2023-02-08T07:32:08.605Z,-1.42
2023-02-08T07:34:38.318Z,-1.73
2023-02-08T07:37:08.631Z,-1.64
2023-02-08T07:39:37.975Z,-1.54
2023-02-08T07:42:07.880Z,-1.11
2023-02-08T07:44:44.526Z,-0.48
2023-02-08T07:47:11.792Z,0.12
2023-02-08T07:49:42.073Z,0.69
2023-02-08T07:52:09.422Z,1.14
2023-02-08T07:54:36.684Z,1.32
2023-02-08T07:57:04.123Z,1.75
2023-02-08T07:59:31.526Z,1.49
2023-02-08T08:02:01.151Z,2.49
2023-02-08T08:04:28.471Z,2.32
2023-02-08T08:06:55.733Z,2.22
2023-02-08T08:09:24.399Z,2.90
2023-02-08T08:11:51.657Z,3.66
2023-02-08T08:14:18.980Z,4.45
2023-02-08T08:16:46.198Z,4.46
2023-02-08T08:19:13.477Z,4.27
2023-02-08T08:21:40.894Z,4.60
2023-02-08T08:24:08.311Z,5.40
2023-02-08T08:26:35.597Z,5.66
2023-02-08T08:29:03.121Z,6.65
2023-02-08T08:31:31.060Z,8.13
2023-02-08T08:33:58.312Z,7.26
2023-02-08T08:36:25.604Z,7.44
2023-02-08T08:38:52.989Z,7.93
2023-02-08T08:41:22.428Z,6.97
2023-02-08T08:43:49.846Z,8.75
2023-02-08T08:46:17.906Z,9.44
2023-02-08T08:48:46.840Z,9.30
2023-02-08T08:51:14.327Z,10.01
2023-02-08T08:53:41.656Z,9.86
2023-02-08T08:56:08.995Z,10.38
2023-02-08T08:58:36.368Z,10.86
2023-02-08T09:01:04.008Z,12.37
2023-02-08T09:03:31.413Z,12.40
2023-02-08T09:05:58.694Z,12.61
2023-02-08T09:08:26.072Z,12.59
2023-02-08T09:10:53.456Z,12.73
2023-02-08T09:13:21.874Z,12.73
2023-02-08T09:15:49.644Z,12.10
2023-02-08T09:18:17.266Z,13.07
2023-02-08T09:20:45.012Z,13.06
2023-02-08T09:23:14.585Z,12.99
2023-02-08T09:25:42.049Z,12.56
2023-02-08T09:28:11.794Z,12.01
2023-02-08T09:30:38.986Z,13.22
2023-02-08T09:33:06.224Z,14.10
2023-02-08T09:35:33.636Z,14.50
2023-02-08T09:38:04.508Z,14.62
2023-02-08T09:40:44.106Z,14.31
2023-02-08T09:43:47.655Z,15.19
2023-02-08T09:46:26.505Z,16.34
2023-02-08T09:48:58.352Z,17.70
2023-02-08T09:51:37.219Z,16.91
2023-02-08T09:54:16.534Z,17.07
2023-02-08T09:56:48.151Z,17.27
2023-02-08T09:59:32.327Z,15.76
2023-02-08T10:02:29.890Z,14.96
2023-02-08T10:05:11.939Z,16.03
2023-02-08T10:07:42.281Z,16.91
2023-02-08T10:10:37.307Z,17.51
2023-02-08T10:13:40.694Z,17.42
2023-02-08T10:16:36.401Z,16.51
2023-02-08T10:19:33.693Z,14.12
2023-02-08T10:22:18.924Z,14.34
2023-02-08T10:25:16.607Z,14.24
2023-02-08T10:28:20.503Z,14.54
2023-02-08T10:30:58.817Z,13.58
2023-02-08T10:34:02.477Z,13.55
2023-02-08T10:36:41.974Z,13.26
2023-02-08T10:39:26.504Z,13.01
2023-02-08T10:41:54.053Z,13.87
2023-02-08T10:44:54.522Z,14.33
2023-02-08T10:47:42.976Z,14.35
2023-02-08T10:50:40.742Z,14.43
2023-02-08T10:53:17.870Z,13.67
2023-02-08T10:55:48.280Z,13.74
2023-02-08T10:58:23.804Z,14.34
2023-02-08T11:00:55.387Z,15.16
2023-02-08T11:03:27.316Z,13.92
2023-02-08T11:05:55.766Z,13.57
2023-02-08T11:08:26.199Z,13.25
2023-02-08T11:11:07.954Z,13.81
2023-02-08T11:13:43.339Z,14.43
2023-02-08T11:16:23.380Z,14.90
2023-02-08T11:18:56.913Z,15.47
2023-02-08T11:21:34.989Z,15.23
2023-02-08T11:24:15.782Z,16.16
2023-02-08T11:26:43.747Z,16.67
2023-02-08T11:29:25.223Z,17.34
2023-02-08T11:32:02.042Z,18.12
2023-02-08T11:34:33.059Z,18.09
2023-02-08T11:37:13.127Z,18.46
2023-02-08T11:40:03.956Z,17.69
2023-02-08T11:42:47.204Z,18.11
2023-02-08T11:45:27.661Z,18.21
2023-02-08T11:47:57.807Z,17.19
2023-02-08T11:50:32.844Z,17.03
2023-02-08T11:53:19.481Z,18.21
2023-02-08T11:56:00.780Z,17.03
2023-02-08T11:58:31.396Z,15.84
2023-02-08T12:01:03.208Z,15.56
2023-02-08T12:03:37.916Z,14.70
2023-02-08T12:06:32.924Z,12.07
2023-02-08T12:09:36.423Z,10.08
2023-02-08T12:12:32.627Z,11.21
2023-02-08T12:15:13.103Z,12.52
2023-02-08T12:18:00.928Z,12.62
2023-02-08T12:20:36.875Z,12.85
2023-02-08T12:23:40.078Z,13.33
2023-02-08T12:26:28.386Z,13.54
2023-02-08T12:29:16.886Z,13.37
2023-02-08T12:32:13.963Z,11.28
2023-02-08T12:34:58.876Z,8.94
2023-02-08T12:38:03.689Z,9.38
2023-02-08T12:41:01.177Z,10.56
2023-02-08T12:44:02.452Z,10.79
2023-02-08T12:47:47.002Z,11.42
2023-02-08T12:50:32.849Z,11.08
2023-02-08T12:53:31.801Z,11.44
2023-02-08T12:56:06.996Z,12.25
2023-02-08T12:58:44.750Z,11.87
2023-02-08T13:01:44.987Z,11.71
2023-02-08T13:04:27.548Z,10.76
2023-02-08T13:07:14.076Z,11.27
2023-02-08T13:09:50.731Z,11.00
2023-02-08T13:12:35.745Z,11.18
2023-02-08T13:15:41.669Z,10.65
2023-02-08T13:18:55.691Z,9.51
2023-02-08T13:21:32.544Z,8.33
2023-02-08T13:24:01.276Z,7.42
2023-02-08T13:26:37.763Z,5.99
2023-02-08T13:29:05.340Z,5.66
2023-02-08T13:31:39.736Z,5.18
2023-02-08T13:34:38.497Z,5.11
2023-02-08T13:37:33.428Z,4.86
2023-02-08T13:40:10.480Z,4.45
2023-02-08T13:42:47.856Z,4.43
2023-02-08T13:45:34.321Z,4.83
2023-02-08T13:48:06.214Z,5.73
2023-02-08T13:50:48.477Z,5.82
2023-02-08T13:53:17.628Z,4.97
2023-02-08T13:56:01.246Z,4.36
2023-02-08T13:58:49.613Z,4.13
2023-02-08T14:01:27.779Z,3.77
2023-02-08T14:04:10.330Z,3.39
2023-02-08T14:07:00.278Z,2.95
2023-02-08T14:10:02.441Z,2.78
2023-02-08T14:12:43.117Z,2.29
2023-02-08T14:15:16.440Z,2.16
2023-02-08T14:18:03.428Z,1.76
2023-02-08T14:20:40.472Z,1.58
2023-02-08T14:23:28.026Z,1.63
2023-02-08T14:25:57.368Z,1.65
2023-02-08T14:28:40.476Z,1.63
2023-02-08T14:31:10.957Z,1.59
2023-02-08T14:33:43.931Z,1.47
2023-02-08T14:36:41.274Z,1.26
2023-02-08T14:39:34.620Z,1.28
2023-02-08T14:42:09.669Z,1.24
2023-02-08T14:44:41.664Z,1.16
2023-02-08T14:47:27.228Z,1.05
2023-02-08T14:50:31.242Z,1.12
2023-02-08T14:53:25.351Z,1.09
2023-02-08T14:56:37.425Z,0.90
2023-02-08T14:59:19.277Z,0.80
2023-02-08T15:02:02.789Z,0.74
2023-02-08T15:04:30.968Z,0.64
2023-02-08T15:07:27.742Z,0.52
2023-02-08T15:09:55.822Z,0.53
2023-02-08T15:12:27.075Z,0.42
2023-02-08T15:15:04.931Z,0.31
2023-02-08T15:17:43.887Z,0.31
2023-02-08T15:20:26.555Z,0.33
2023-02-08T15:23:27.034Z,0.21
2023-02-08T15:26:22.607Z,0.01
2023-02-08T15:28:49.957Z,-0.10
2023-02-08T15:31:27.540Z,-0.19
2023-02-08T15:33:55.087Z,-0.35
2023-02-08T15:36:34.927Z,-0.55
2023-02-08T15:39:26.878Z,-0.60
2023-02-08T15:41:59.179Z,-0.67
2023-02-08T15:44:33.351Z,-0.67
2023-02-08T15:47:05.067Z,-0.75
2023-02-08T15:49:40.008Z,-0.81
2023-02-08T15:52:08.985Z,-0.81
2023-02-08T15:54:36.430Z,-0.94
2023-02-08T15:57:29.005Z,-1.05
2023-02-08T15:59:57.012Z,-1.04
2023-02-08T16:02:33.273Z,-1.08
2023-02-08T16:05:03.360Z,-1.16
2023-02-08T16:07:37.563Z,-1.22
2023-02-08T16:10:08.558Z,-1.26
2023-02-08T16:12:36.541Z,-1.27
2023-02-08T16:15:04.402Z,-1.34
2023-02-08T16:17:41.889Z,-1.37
2023-02-08T16:20:34.439Z,-1.35
2023-02-08T16:23:26.020Z,-1.40
2023-02-08T16:25:53.830Z,-1.53
2023-02-08T16:28:33.983Z,-1.60
2023-02-08T16:31:05.138Z,-1.77
2023-02-08T16:33:34.918Z,-1.77
2023-02-08T16:36:02.292Z,-1.74
2023-02-08T16:38:34.663Z,-1.68
2023-02-08T16:41:15.094Z,-1.65
2023-02-08T16:43:47.992Z,-1.63
2023-02-08T16:46:15.542Z,-1.88
2023-02-08T16:48:51.332Z,-2.07
2023-02-08T16:51:30.916Z,-2.27
2023-02-08T16:54:07.517Z,-2.41
2023-02-08T16:56:39.794Z,-2.58
2023-02-08T16:59:07.204Z,-2.73
2023-02-08T17:01:35.633Z,-2.85
2023-02-08T17:04:02.995Z,-2.86
2023-02-08T17:06:36.477Z,-2.93
2023-02-08T17:09:06.685Z,-2.98
2023-02-08T17:11:35.705Z,-3.09
2023-02-08T17:14:03.111Z,-3.23
2023-02-08T17:16:32.975Z,-3.32
2023-02-08T17:19:01.904Z,-3.24
2023-02-08T17:21:29.524Z,-3.26
2023-02-08T17:23:57.890Z,-3.39
2023-02-08T17:26:43.422Z,-3.50
2023-02-08T17:29:12.795Z,-3.45
2023-02-08T17:31:41.166Z,-3.21
2023-02-08T17:34:08.604Z,-3.13
2023-02-08T17:36:37.409Z,-3.06
2023-02-08T17:39:06.420Z,-2.97
2023-02-08T17:41:33.771Z,-3.01
2023-02-08T17:44:01.950Z,-3.04
2023-02-08T17:46:32.968Z,-3.06
2023-02-08T17:49:01.749Z,-3.16
2023-02-08T17:51:30.140Z,-3.17
2023-02-08T17:53:57.610Z,-3.10
2023-02-08T17:56:27.760Z,-3.15
2023-02-08T17:58:56.036Z,-3.07
2023-02-08T18:01:27.042Z,-2.97
2023-02-08T18:03:54.799Z,-2.91
2023-02-08T18:06:23.887Z,-2.96
2023-02-08T18:08:52.727Z,-2.99
2023-02-08T18:11:21.287Z,-3.12
2023-02-08T18:13:50.623Z,-3.21
2023-02-08T18:16:25.949Z,-3.24
2023-02-08T18:18:59.254Z,-3.42
2023-02-08T18:21:26.888Z,-3.60
2023-02-08T18:23:55.459Z,-3.55
2023-02-08T18:26:24.997Z,-3.47
2023-02-08T18:28:52.456Z,-3.47
2023-02-08T18:31:21.638Z,-3.52
2023-02-08T18:33:50.510Z,-3.61
2023-02-08T18:36:20.739Z,-3.84
2023-02-08T18:38:52.481Z,-3.96
2023-02-08T18:41:26.393Z,-4.04
2023-02-08T18:43:55.443Z,-4.11
2023-02-08T18:46:26.226Z,-4.19
2023-02-08T18:48:54.804Z,-4.25
2023-02-08T18:51:24.786Z,-4.24
2023-02-08T18:53:54.974Z,-4.33
2023-02-08T18:56:26.098Z,-4.30
2023-02-08T18:58:59.925Z,-4.41
2023-02-08T19:01:27.618Z,-4.52
2023-02-08T19:03:54.931Z,-4.51
2023-02-08T19:06:26.554Z,-4.55
2023-02-08T19:08:56.693Z,-4.60
2023-02-08T19:11:34.288Z,-4.70
2023-02-08T19:14:06.041Z,-4.81
2023-02-08T19:16:36.658Z,-4.86
2023-02-08T19:19:05.818Z,-4.82
2023-02-08T19:21:34.592Z,-4.90
2023-02-08T19:24:02.858Z,-4.94
2023-02-08T19:26:39.937Z,-4.94
2023-02-08T19:29:16.139Z,-5.08
2023-02-08T19:31:44.854Z,-5.15
2023-02-08T19:34:13.206Z,-5.24
2023-02-08T19:36:51.879Z,-5.20
2023-02-08T19:39:23.936Z,-5.10
2023-02-08T19:41:52.970Z,-5.01
2023-02-08T19:44:21.313Z,-4.98
2023-02-08T19:46:54.309Z,-4.92
2023-02-08T19:49:25.454Z,-4.89
2023-02-08T19:51:53.404Z,-4.94
2023-02-08T19:54:21.367Z,-5.03
2023-02-08T19:56:50.512Z,-5.08
2023-02-08T19:59:22.141Z,-5.13
2023-02-08T20:01:52.428Z,-5.24
2023-02-08T20:04:20.438Z,-5.29
2023-02-08T20:06:52.261Z,-5.28
2023-02-08T20:09:19.566Z,-5.23
2023-02-08T20:12:02.274Z,-5.24
2023-02-08T20:14:33.069Z,-5.28
2023-02-08T20:17:02.307Z,-5.39
2023-02-08T20:19:30.228Z,-5.45
2023-02-08T20:21:57.468Z,-5.50
2023-02-08T20:24:24.810Z,-5.55
2023-02-08T20:26:52.074Z,-5.51
2023-02-08T20:29:19.608Z,-5.57
2023-02-08T20:31:51.915Z,-5.68
2023-02-08T20:34:19.548Z,-5.74
2023-02-08T20:37:06.744Z,-5.70
2023-02-08T20:39:37.115Z,-5.57
2023-02-08T20:42:04.866Z,-5.51
2023-02-08T20:44:32.196Z,-5.58
2023-02-08T20:46:59.819Z,-5.75
2023-02-08T20:49:27.061Z,-5.96
2023-02-08T20:51:55.331Z,-5.98
2023-02-08T20:54:25.841Z,-5.91
2023-02-08T20:56:54.158Z,-5.94
2023-02-08T20:59:22.077Z,-6.09
2023-02-08T21:01:50.046Z,-6.17
2023-02-08T21:04:18.081Z,-6.12
2023-02-08T21:06:46.431Z,-6.10
2023-02-08T21:09:17.451Z,-6.13
2023-02-08T21:11:46.177Z,-6.18
2023-02-08T21:14:19.029Z,-6.27
2023-02-08T21:16:48.990Z,-6.33
2023-02-08T21:19:17.403Z,-6.44
2023-02-08T21:21:44.868Z,-6.66
2023-02-08T21:24:12.454Z,-6.84
2023-02-08T21:26:39.701Z,-6.85
2023-02-08T21:29:07.784Z,-6.78
2023-02-08T21:31:36.790Z,-6.67
2023-02-08T21:34:05.969Z,-6.68
2023-02-08T21:36:33.430Z,-6.77
2023-02-08T21:39:01.012Z,-6.78
2023-02-08T21:41:33.102Z,-6.85
2023-02-08T21:44:04.069Z,-6.91
2023-02-08T21:46:32.660Z,-6.73
2023-02-08T21:49:19.867Z,-6.61
2023-02-08T21:52:05.913Z,-6.45
2023-02-08T21:54:46.745Z,-6.34
2023-02-08T21:57:21.701Z,-6.33
2023-02-08T21:59:52.170Z,-6.35
2023-02-08T22:02:22.205Z,-6.53
2023-02-08T22:04:50.482Z,-6.52
2023-02-08T22:07:18.088Z,-6.29
2023-02-08T22:09:45.362Z,-6.07
2023-02-08T22:12:15.899Z,-5.84
2023-02-08T22:14:43.644Z,-5.79
2023-02-08T22:17:11.374Z,-5.68
2023-02-08T22:19:40.490Z,-5.55
2023-02-08T22:22:08.928Z,-5.53
2023-02-08T22:24:36.943Z,-5.65
2023-02-08T22:27:04.473Z,-5.62
2023-02-08T22:29:32.230Z,-5.72
2023-02-08T22:31:59.670Z,-5.78
2023-02-08T22:34:27.654Z,-5.86
2023-02-08T22:36:55.276Z,-5.93
2023-02-08T22:39:22.864Z,-6.02
2023-02-08T22:41:50.203Z,-6.10
2023-02-08T22:44:17.640Z,-6.05
2023-02-08T22:46:45.001Z,-6.12
2023-02-08T22:49:12.203Z,-6.21
2023-02-08T22:51:39.650Z,-6.31
2023-02-08T22:54:06.890Z,-6.37
2023-02-08T22:56:34.590Z,-6.34
2023-02-08T22:59:01.829Z,-6.29
2023-02-08T23:01:29.170Z,-6.19
2023-02-08T23:03:56.544Z,-6.09
2023-02-08T23:06:23.924Z,-6.35
2023-02-08T23:08:51.335Z,-6.48
2023-02-08T23:11:19.832Z,-6.43
2023-02-08T23:13:47.565Z,-6.34
2023-02-08T23:16:18.534Z,-6.23
2023-02-08T23:18:46.433Z,-6.31
2023-02-08T23:21:18.310Z,-6.18
2023-02-08T23:23:47.579Z,-6.03
2023-02-08T23:26:19.234Z,-6.01
2023-02-08T23:28:49.364Z,-6.23
2023-02-08T23:31:17.144Z,-6.09
2023-02-08T23:33:44.814Z,-5.99
2023-02-08T23:36:19.220Z,-5.80
2023-02-08T23:38:47.444Z,-6.00
2023-02-08T23:41:23.219Z,-6.08
2023-02-08T23:43:52.489Z,-5.84
2023-02-08T23:46:26.813Z,-5.65
2023-02-08T23:48:54.864Z,-5.43
2023-02-08T23:51:25.147Z,-5.56
2023-02-08T23:53:54.318Z,-5.69
2023-02-08T23:56:26.397Z,-5.77
2023-02-08T23:58:57.821Z,-5.87
